createdAt,value
2022-12-26T00:01:41.401Z,6.90
2022-12-26T00:04:51.868Z,8.60
2022-12-26T00:06:58.208Z,9.15
2022-12-26T00:09:27.120Z,10.55
2022-12-26T00:11:55.487Z,11.07
2022-12-26T00:14:23.776Z,9.82
2022-12-26T00:16:53.180Z,12.25
2022-12-26T00:19:21.489Z,9.65
2022-12-26T00:21:50.022Z,8.43
2022-12-26T00:24:18.433Z,8.60
2022-12-26T00:26:46.787Z,9.52
2022-12-26T00:29:15.398Z,12.30
2022-12-26T00:31:43.719Z,12.00
2022-12-26T00:34:15.092Z,11.40
2022-12-26T00:39:11.686Z,11.65
2022-12-26T00:41:40.053Z,14.07
2022-12-26T00:44:08.315Z,11.15
2022-12-26T00:46:36.884Z,8.48
2022-12-26T00:49:05.382Z,7.80
2022-12-26T00:51:33.787Z,8.07
2022-12-26T00:54:02.029Z,12.23
2022-12-26T00:56:30.405Z,8.85
2022-12-26T00:58:58.641Z,8.30
2022-12-26T01:01:27.067Z,8.57
2022-12-26T01:03:55.468Z,8.95
2022-12-26T01:06:23.700Z,7.90
2022-12-26T01:08:53.912Z,7.65
2022-12-26T01:11:42.931Z,9.38
2022-12-26T01:14:19.114Z,12.73
2022-12-26T01:16:48.351Z,17.88
2022-12-26T01:19:16.726Z,18.23
2022-12-26T01:21:45.337Z,11.50
2022-12-26T01:24:14.805Z,18.42
2022-12-26T01:26:43.152Z,21.95
2022-12-26T01:29:11.531Z,23.88
2022-12-26T01:31:40.216Z,25.13
2022-12-26T01:34:08.483Z,26.52
2022-12-26T01:36:36.734Z,26.80
2022-12-26T01:39:05.077Z,26.83
2022-12-26T01:41:34.107Z,26.92
2022-12-26T01:44:47.103Z,31.65
2022-12-26T01:47:16.095Z,28.20
2022-12-26T01:49:48.528Z,29.35
2022-12-26T01:52:49.855Z,23.65
2022-12-26T01:55:21.655Z,15.00
2022-12-26T01:57:58.945Z,22.80
2022-12-26T02:00:27.319Z,25.25
2022-12-26T02:03:14.266Z,18.73
2022-12-26T02:05:44.602Z,26.65
2022-12-26T02:08:30.594Z,24.10
2022-12-26T02:11:15.832Z,26.60
2022-12-26T02:13:44.481Z,26.27
2022-12-26T02:16:17.074Z,23.35
2022-12-26T02:18:45.753Z,24.05
2022-12-26T02:22:04.210Z,19.17
2022-12-26T02:24:51.167Z,23.70
2022-12-26T02:27:37.558Z,26.73
2022-12-26T02:30:21.688Z,28.60
2022-12-26T02:33:31.298Z,20.15
2022-12-26T02:36:31.483Z,18.48
2022-12-26T02:39:45.499Z,17.20
2022-12-26T02:42:54.497Z,26.85
2022-12-26T02:45:47.993Z,25.00
2022-12-26T02:48:22.433Z,23.00
2022-12-26T02:51:19.963Z,27.27
2022-12-26T02:54:17.668Z,28.23
2022-12-26T02:57:11.107Z,22.58
2022-12-26T03:00:05.360Z,21.73
2022-12-26T03:03:18.393Z,28.00
2022-12-26T03:06:25.073Z,26.83
2022-12-26T03:09:16.823Z,27.05
2022-12-26T03:12:08.140Z,24.63
2022-12-26T03:14:49.412Z,26.10
2022-12-26T03:17:31.851Z,21.73
2022-12-26T03:20:07.294Z,25.70
2022-12-26T03:22:54.766Z,26.48
2022-12-26T03:26:07.707Z,24.30
2022-12-26T03:28:36.172Z,26.63
2022-12-26T03:31:08.607Z,25.50
2022-12-26T03:33:59.424Z,25.88
2022-12-26T03:37:04.385Z,25.03
2022-12-26T03:40:05.857Z,23.80
2022-12-26T03:43:10.262Z,16.55
2022-12-26T03:46:37.002Z,22.55
2022-12-26T03:49:35.251Z,22.60
2022-12-26T03:52:47.482Z,21.88
2022-12-26T03:55:48.461Z,25.25
2022-12-26T03:58:58.039Z,25.13
2022-12-26T04:01:48.626Z,20.73
2022-12-26T04:04:36.951Z,24.35
2022-12-26T04:07:57.878Z,24.75
2022-12-26T04:10:57.340Z,25.95
2022-12-26T04:13:51.553Z,27.38
2022-12-26T04:16:51.289Z,29.58
2022-12-26T04:19:43.459Z,26.90
2022-12-26T04:22:41.381Z,26.35
2022-12-26T04:25:50.420Z,28.40
2022-12-26T04:28:40.938Z,26.58
2022-12-26T04:31:58.875Z,26.30
2022-12-26T04:34:57.782Z,26.50
2022-12-26T04:37:48.525Z,27.23
2022-12-26T04:40:42.351Z,25.25
2022-12-26T04:43:50.340Z,25.67
2022-12-26T04:46:23.575Z,26.23
2022-12-26T04:49:13.123Z,27.05
2022-12-26T04:51:41.685Z,26.50
2022-12-26T04:54:10.075Z,27.38
2022-12-26T04:56:39.161Z,25.45
2022-12-26T04:59:07.532Z,27.15
2022-12-26T05:01:54.541Z,26.58
2022-12-26T05:04:41.298Z,25.65
2022-12-26T05:07:52.579Z,23.13
2022-12-26T05:10:27.659Z,26.00
2022-12-26T05:12:56.852Z,24.30
2022-12-26T05:15:25.418Z,26.02
2022-12-26T05:18:11.875Z,26.58
2022-12-26T05:20:47.133Z,25.55
2022-12-26T05:23:40.804Z,27.00
2022-12-26T05:26:38.059Z,27.13
2022-12-26T05:29:06.573Z,27.55
2022-12-26T05:31:36.378Z,28.33
2022-12-26T05:34:11.350Z,26.20
2022-12-26T05:36:52.003Z,26.63
2022-12-26T05:39:20.758Z,25.10
2022-12-26T05:41:49.187Z,26.85
2022-12-26T05:44:17.641Z,27.13
2022-12-26T05:46:47.583Z,25.63
2022-12-26T05:49:15.863Z,27.20
2022-12-26T05:51:44.127Z,24.63
2022-12-26T05:54:12.395Z,24.60
2022-12-26T05:56:45.751Z,25.83
2022-12-26T05:59:17.355Z,25.08
2022-12-26T06:01:45.712Z,24.42
2022-12-26T06:04:14.019Z,25.30
2022-12-26T06:06:42.284Z,25.92
2022-12-26T06:09:10.677Z,26.02
2022-12-26T06:11:43.786Z,26.15
2022-12-26T06:14:17.256Z,25.33
2022-12-26T06:16:45.623Z,27.20
2022-12-26T06:19:13.945Z,28.77
2022-12-26T06:21:42.212Z,29.13
2022-12-26T06:24:10.532Z,27.58
2022-12-26T06:26:38.753Z,26.38
2022-12-26T06:29:07.006Z,28.33
2022-12-26T06:31:35.360Z,25.83
2022-12-26T06:34:03.643Z,24.92
2022-12-26T06:36:31.962Z,27.60
2022-12-26T06:39:01.930Z,22.30
2022-12-26T06:41:30.319Z,24.73
2022-12-26T06:43:58.872Z,25.73
2022-12-26T06:46:27.977Z,23.85
2022-12-26T06:48:56.257Z,25.75
2022-12-26T06:51:27.356Z,27.45
2022-12-26T06:53:56.032Z,26.27
2022-12-26T06:56:27.038Z,26.67
2022-12-26T06:58:59.997Z,26.38
2022-12-26T07:01:29.799Z,24.45
2022-12-26T07:03:59.113Z,25.77
2022-12-26T07:06:28.684Z,25.05
2022-12-26T07:09:10.425Z,17.10
2022-12-26T07:11:40.359Z,23.73
2022-12-26T07:14:09.368Z,27.65
2022-12-26T07:16:39.555Z,29.05
2022-12-26T07:19:08.545Z,29.00
2022-12-26T07:21:40.774Z,29.92
2022-12-26T07:24:21.622Z,27.20
2022-12-26T07:26:50.731Z,24.45
2022-12-26T07:29:19.328Z,24.63
2022-12-26T07:31:47.656Z,26.52
2022-12-26T07:34:16.179Z,16.60
2022-12-26T07:36:44.442Z,23.58
2022-12-26T07:39:15.481Z,17.17
2022-12-26T07:41:58.537Z,22.75
2022-12-26T07:44:28.638Z,23.27
2022-12-26T07:46:57.812Z,24.42
2022-12-26T07:49:26.527Z,12.85
2022-12-26T07:51:54.856Z,11.00
2022-12-26T07:54:23.291Z,23.17
2022-12-26T07:56:51.557Z,26.55
2022-12-26T07:59:19.903Z,24.67
2022-12-26T08:01:48.426Z,24.92
2022-12-26T08:04:16.834Z,25.83
2022-12-26T08:06:47.454Z,25.77
2022-12-26T08:09:17.390Z,20.83
2022-12-26T08:11:45.906Z,11.32
2022-12-26T08:14:17.457Z,15.00
2022-12-26T08:19:19.822Z,18.38
2022-12-26T08:21:48.106Z,23.98
2022-12-26T08:24:16.858Z,19.77
2022-12-26T08:26:45.127Z,24.67
2022-12-26T08:29:13.336Z,22.65
2022-12-26T08:31:41.985Z,11.38
2022-12-26T08:34:10.819Z,16.30
2022-12-26T08:36:39.796Z,17.00
2022-12-26T08:39:08.083Z,22.80
2022-12-26T08:41:36.384Z,25.15
2022-12-26T08:46:52.972Z,17.27
2022-12-26T08:49:21.233Z,10.82
2022-12-26T08:51:49.514Z,14.00
2022-12-26T08:54:17.794Z,11.23
2022-12-26T08:56:46.047Z,24.48
2022-12-26T08:59:14.359Z,18.42
2022-12-26T09:01:42.863Z,21.88
2022-12-26T09:04:11.227Z,22.58
2022-12-26T09:06:40.686Z,20.58
2022-12-26T09:09:15.132Z,18.77
2022-12-26T09:11:44.357Z,21.67
2022-12-26T09:14:12.951Z,22.40
2022-12-26T09:16:50.737Z,15.35
2022-12-26T09:19:20.958Z,21.45
2022-12-26T09:22:10.940Z,9.93
2022-12-26T09:24:39.266Z,14.10
2022-12-26T09:27:07.665Z,11.85
2022-12-26T09:29:36.371Z,15.27
2022-12-26T09:32:04.719Z,23.33
2022-12-26T09:34:32.989Z,23.67
2022-12-26T09:37:01.291Z,24.17
2022-12-26T09:39:29.552Z,23.95
2022-12-26T09:42:21.309Z,24.40
2022-12-26T09:47:34.872Z,25.35
2022-12-26T09:50:13.863Z,23.20
2022-12-26T09:52:53.078Z,23.15
2022-12-26T09:55:39.420Z,24.70
2022-12-26T09:58:31.516Z,23.77
2022-12-26T10:01:21.212Z,25.02
2022-12-26T10:03:53.554Z,23.35
2022-12-26T10:06:32.122Z,20.90
2022-12-26T10:09:19.391Z,22.40
2022-12-26T10:12:05.301Z,22.48
2022-12-26T10:15:04.442Z,26.00
2022-12-26T10:17:58.407Z,24.65
2022-12-26T10:20:44.847Z,25.25
2022-12-26T10:23:30.756Z,25.80
2022-12-26T10:26:09.301Z,24.50
2022-12-26T10:28:37.475Z,26.42
2022-12-26T10:31:21.914Z,27.23
2022-12-26T10:34:15.983Z,23.98
2022-12-26T10:36:58.577Z,26.73
2022-12-26T10:39:49.030Z,28.48
2022-12-26T10:42:31.893Z,23.45
2022-12-26T10:45:00.877Z,26.45
2022-12-26T10:47:32.148Z,24.67
2022-12-26T10:50:00.891Z,24.13
2022-12-26T10:52:36.440Z,25.02
2022-12-26T10:55:28.729Z,21.52
2022-12-26T10:57:54.973Z,23.25
2022-12-26T11:00:26.974Z,22.63
2022-12-26T11:03:16.855Z,24.08
2022-12-26T11:06:07.621Z,21.95
2022-12-26T11:08:44.188Z,18.08
2022-12-26T11:11:48.041Z,22.17
2022-12-26T11:14:40.799Z,22.80
2022-12-26T11:17:14.704Z,21.50
2022-12-26T11:19:45.452Z,22.58
2022-12-26T11:22:30.128Z,21.83
2022-12-26T11:25:19.261Z,21.48
2022-12-26T11:28:20.916Z,23.65
2022-12-26T11:30:49.758Z,21.80
2022-12-26T11:33:17.934Z,13.20
2022-12-26T11:36:10.792Z,14.13
2022-12-26T11:38:57.283Z,9.85
2022-12-26T11:41:34.213Z,16.48
2022-12-26T11:44:14.127Z,9.52
2022-12-26T11:46:50.362Z,12.07
2022-12-26T11:49:23.886Z,9.35
2022-12-26T11:51:58.924Z,9.25
2022-12-26T11:54:51.204Z,11.15
2022-12-26T11:57:23.240Z,16.25
2022-12-26T11:59:53.949Z,9.23
2022-12-26T12:02:31.891Z,10.27
2022-12-26T12:05:14.309Z,8.18
2022-12-26T12:07:53.360Z,13.90
2022-12-26T12:10:48.560Z,18.73
2022-12-26T12:13:30.345Z,12.38
2022-12-26T12:15:58.653Z,9.48
2022-12-26T12:18:42.096Z,8.30
2022-12-26T12:21:43.926Z,8.38
2022-12-26T12:27:07.658Z,12.30
2022-12-26T12:29:47.761Z,13.30
2022-12-26T12:32:43.236Z,16.98
2022-12-26T12:35:35.923Z,18.48
2022-12-26T12:38:25.480Z,8.77
2022-12-26T12:41:26.097Z,17.70
2022-12-26T12:43:54.264Z,20.83
2022-12-26T12:46:31.681Z,8.48
2022-12-26T12:49:00.371Z,15.02
2022-12-26T12:51:53.760Z,17.48
2022-12-26T12:54:47.286Z,18.52
2022-12-26T12:57:58.746Z,18.42
2022-12-26T13:00:48.651Z,13.70
2022-12-26T13:03:35.539Z,18.58
2022-12-26T13:06:09.933Z,20.38
2022-12-26T13:08:50.557Z,20.58
2022-12-26T13:11:24.051Z,10.02
2022-12-26T13:14:14.960Z,20.10
2022-12-26T13:16:53.140Z,19.93
2022-12-26T13:19:26.349Z,11.73
2022-12-26T13:21:58.830Z,20.80
2022-12-26T13:24:32.458Z,23.52
2022-12-26T13:27:23.452Z,22.98
2022-12-26T13:29:51.855Z,15.73
2022-12-26T13:32:32.422Z,25.13
2022-12-26T13:35:02.772Z,23.80
2022-12-26T13:37:39.483Z,24.00
2022-12-26T13:40:16.075Z,23.10
2022-12-26T13:43:14.084Z,13.82
2022-12-26T13:45:42.343Z,26.63
2022-12-26T13:48:16.699Z,22.80
2022-12-26T13:51:04.137Z,24.35
2022-12-26T13:53:35.196Z,23.38
2022-12-26T13:56:06.255Z,26.63
2022-12-26T13:58:53.904Z,25.40
2022-12-26T14:01:46.445Z,24.73
2022-12-26T14:04:38.075Z,25.38
2022-12-26T14:07:15.672Z,25.33
2022-12-26T14:10:03.665Z,24.30
2022-12-26T14:12:46.913Z,24.60
2022-12-26T14:15:43.647Z,22.80
2022-12-26T14:18:39.882Z,22.52
2022-12-26T14:21:26.408Z,26.10
2022-12-26T14:24:15.204Z,25.85
2022-12-26T14:27:13.690Z,27.45
2022-12-26T14:29:59.419Z,25.02
2022-12-26T14:32:27.635Z,24.98
2022-12-26T14:35:25.338Z,25.95
2022-12-26T14:38:31.399Z,26.45
2022-12-26T14:41:06.297Z,27.33
2022-12-26T14:43:42.667Z,24.88
2022-12-26T14:46:33.472Z,27.83
2022-12-26T14:49:20.424Z,26.77
2022-12-26T14:51:48.867Z,27.27
2022-12-26T14:54:38.985Z,28.67
2022-12-26T14:57:44.661Z,33.53
2022-12-26T15:00:24.991Z,32.83
2022-12-26T15:03:13.281Z,32.00
2022-12-26T15:05:45.678Z,31.20
2022-12-26T15:08:46.265Z,29.85
2022-12-26T15:11:32.884Z,30.55
2022-12-26T15:14:31.266Z,29.20
2022-12-26T15:17:39.845Z,30.38
2022-12-26T15:20:32.254Z,30.60
2022-12-26T15:23:26.730Z,26.75
2022-12-26T15:26:06.780Z,24.50
2022-12-26T15:29:06.607Z,26.05
2022-12-26T15:31:54.559Z,25.65
2022-12-26T15:34:38.385Z,24.52
2022-12-26T15:37:18.598Z,26.80
2022-12-26T15:40:10.532Z,24.00
2022-12-26T15:42:54.022Z,23.98
2022-12-26T15:45:38.847Z,23.80
2022-12-26T15:48:13.086Z,22.65
2022-12-26T15:51:01.337Z,22.88
2022-12-26T15:53:51.137Z,23.48
2022-12-26T15:56:40.658Z,23.13
2022-12-26T15:59:14.335Z,23.02
2022-12-26T16:01:45.251Z,24.10
2022-12-26T16:04:26.658Z,25.35
2022-12-26T16:07:09.969Z,23.67
2022-12-26T16:09:48.287Z,23.10
2022-12-26T16:12:30.170Z,23.23
2022-12-26T16:15:02.989Z,21.70
2022-12-26T16:17:31.550Z,22.13
2022-12-26T16:19:59.892Z,21.23
2022-12-26T16:22:47.325Z,21.25
2022-12-26T16:25:25.115Z,23.05
2022-12-26T16:27:57.029Z,23.05
2022-12-26T16:30:31.893Z,21.98
2022-12-26T16:33:01.226Z,21.95
2022-12-26T16:35:40.203Z,21.85
2022-12-26T16:38:15.991Z,21.15
2022-12-26T16:40:50.017Z,20.38
2022-12-26T16:43:28.862Z,20.17
2022-12-26T16:46:04.451Z,21.23
2022-12-26T16:48:34.711Z,19.75
2022-12-26T16:51:06.175Z,20.48
2022-12-26T16:53:37.449Z,21.38
2022-12-26T16:56:30.350Z,20.25
2022-12-26T16:59:17.057Z,21.52
2022-12-26T17:01:56.644Z,21.23
2022-12-26T17:04:30.434Z,19.70
2022-12-26T17:07:10.131Z,20.17
2022-12-26T17:09:46.669Z,19.75
2022-12-26T17:12:39.712Z,21.10
2022-12-26T17:15:09.400Z,20.10
2022-12-26T17:17:39.721Z,19.55
2022-12-26T17:20:26.210Z,19.17
2022-12-26T17:22:56.077Z,18.25
2022-12-26T17:25:29.102Z,17.48
2022-12-26T17:28:09.661Z,17.63
2022-12-26T17:30:44.560Z,16.73
2022-12-26T17:33:30.008Z,17.67
2022-12-26T17:38:56.725Z,17.83
2022-12-26T17:41:25.067Z,17.25
2022-12-26T17:43:53.709Z,18.15
2022-12-26T17:46:22.048Z,16.40
2022-12-26T17:48:50.401Z,17.40
2022-12-26T17:51:20.310Z,17.55
2022-12-26T17:53:51.616Z,16.50
2022-12-26T17:56:24.231Z,19.45
2022-12-26T17:58:52.627Z,17.33
2022-12-26T18:01:22.292Z,18.85
2022-12-26T18:03:53.766Z,18.20
2022-12-26T18:06:22.716Z,18.80
2022-12-26T18:08:51.963Z,19.83
2022-12-26T18:11:20.408Z,20.67
2022-12-26T18:13:48.742Z,20.08
2022-12-26T18:16:20.126Z,20.20
2022-12-26T18:18:49.303Z,19.88
2022-12-26T18:21:17.588Z,19.63
2022-12-26T18:23:45.904Z,20.23
2022-12-26T18:26:32.459Z,20.25
2022-12-26T18:29:00.892Z,20.35
2022-12-26T18:31:29.630Z,19.35
2022-12-26T18:33:58.414Z,20.33
2022-12-26T18:36:32.686Z,20.08
2022-12-26T18:39:01.227Z,18.48
2022-12-26T18:41:29.620Z,17.65
2022-12-26T18:43:59.018Z,18.05
2022-12-26T18:46:29.777Z,15.55
2022-12-26T18:48:58.414Z,14.73
2022-12-26T18:51:28.658Z,14.90
2022-12-26T18:53:56.880Z,15.95
2022-12-26T18:56:25.378Z,15.55
2022-12-26T18:58:57.724Z,15.75
2022-12-26T19:01:27.037Z,14.98
2022-12-26T19:03:56.030Z,17.00
2022-12-26T19:06:27.208Z,19.73
2022-12-26T19:08:56.418Z,21.25
2022-12-26T19:11:26.041Z,19.63
2022-12-26T19:13:54.906Z,20.33
2022-12-26T19:16:24.190Z,19.23
2022-12-26T19:18:52.791Z,20.90
2022-12-26T19:21:21.127Z,21.10
2022-12-26T19:23:51.853Z,20.70
2022-12-26T19:26:20.774Z,20.13
2022-12-26T19:28:57.214Z,20.23
2022-12-26T19:31:25.780Z,19.40
2022-12-26T19:33:54.020Z,20.05
2022-12-26T19:36:22.426Z,19.83
2022-12-26T19:38:50.707Z,19.23
2022-12-26T19:41:19.009Z,19.85
2022-12-26T19:43:47.331Z,19.05
2022-12-26T19:46:16.952Z,18.38
2022-12-26T19:48:45.731Z,17.80
2022-12-26T19:51:16.626Z,17.67
2022-12-26T19:53:47.086Z,18.77
2022-12-26T19:56:22.061Z,18.33
2022-12-26T19:58:56.081Z,17.45
2022-12-26T20:01:28.196Z,17.63
2022-12-26T20:06:28.003Z,17.77
2022-12-26T20:08:59.778Z,17.73
2022-12-26T20:11:34.451Z,20.30
2022-12-26T20:14:04.909Z,19.50
2022-12-26T20:19:23.177Z,19.67
2022-12-26T20:21:51.649Z,19.48
2022-12-26T20:24:22.217Z,18.80
2022-12-26T20:26:51.577Z,18.53
2022-12-26T20:29:20.108Z,17.27
2022-12-26T20:31:48.705Z,19.15
2022-12-26T20:34:17.379Z,17.65
2022-12-26T20:36:45.867Z,16.92
2022-12-26T20:39:16.993Z,17.30
2022-12-26T20:41:45.963Z,17.48
2022-12-26T20:44:15.795Z,18.10
2022-12-26T20:46:44.965Z,17.90
2022-12-26T20:49:13.834Z,18.70
2022-12-26T20:51:44.601Z,18.38
2022-12-26T20:54:14.766Z,18.27
2022-12-26T20:56:44.595Z,18.63
2022-12-26T20:59:13.079Z,17.55
2022-12-26T21:01:42.053Z,19.33
2022-12-26T21:04:18.104Z,18.13
2022-12-26T21:06:48.160Z,19.20
2022-12-26T21:09:17.243Z,18.45
2022-12-26T21:11:46.345Z,19.00
2022-12-26T21:14:18.326Z,18.38
2022-12-26T21:16:50.524Z,18.25
2022-12-26T21:19:20.498Z,17.98
2022-12-26T21:21:52.663Z,17.55
2022-12-26T21:24:35.205Z,17.80
2022-12-26T21:27:03.686Z,18.67
2022-12-26T21:29:34.996Z,18.38
2022-12-26T21:32:05.223Z,17.88
2022-12-26T21:34:34.889Z,17.85
2022-12-26T21:37:21.928Z,18.15
2022-12-26T21:39:51.488Z,18.40
2022-12-26T21:42:20.379Z,18.75
2022-12-26T21:44:49.140Z,17.90
2022-12-26T21:47:17.509Z,17.73
2022-12-26T21:49:45.822Z,19.27
2022-12-26T21:52:16.824Z,18.77
2022-12-26T21:55:03.754Z,19.55
2022-12-26T21:57:35.119Z,18.52
2022-12-26T22:00:05.017Z,18.70
2022-12-26T22:02:54.754Z,18.20
2022-12-26T22:05:28.188Z,18.23
2022-12-26T22:08:01.032Z,17.65
2022-12-26T22:10:52.553Z,18.15
2022-12-26T22:13:22.885Z,20.10
2022-12-26T22:16:05.490Z,18.20
2022-12-26T22:18:39.355Z,19.08
2022-12-26T22:21:22.728Z,18.92
2022-12-26T22:23:51.993Z,19.05
2022-12-26T22:26:25.359Z,18.88
2022-12-26T22:28:53.749Z,20.27
2022-12-26T22:31:25.792Z,18.98
2022-12-26T22:34:06.744Z,20.27
2022-12-26T22:36:38.481Z,18.63
2022-12-26T22:39:07.030Z,19.70
2022-12-26T22:41:35.895Z,19.38
2022-12-26T22:44:04.268Z,20.20
2022-12-26T22:46:32.698Z,19.05
2022-12-26T22:49:01.090Z,18.83
2022-12-26T22:51:29.528Z,19.25
2022-12-26T22:53:59.936Z,19.05
2022-12-26T22:56:32.651Z,18.15
2022-12-26T22:59:01.478Z,18.60
2022-12-26T23:01:33.097Z,19.15
2022-12-26T23:04:02.596Z,18.85
2022-12-26T23:06:38.934Z,18.02
2022-12-26T23:09:13.673Z,19.60
2022-12-26T23:11:42.555Z,19.73
2022-12-26T23:14:14.175Z,20.38
2022-12-26T23:16:45.333Z,19.45
2022-12-26T23:19:52.641Z,19.88
2022-12-26T23:22:21.521Z,21.13
2022-12-26T23:24:49.837Z,20.40
2022-12-26T23:27:36.913Z,19.25
2022-12-26T23:30:21.895Z,22.42
2022-12-26T23:32:54.760Z,23.58
2022-12-26T23:35:24.479Z,24.60
2022-12-26T23:37:53.172Z,23.17
2022-12-26T23:40:22.325Z,22.55
2022-12-26T23:42:50.649Z,24.23
2022-12-26T23:45:19.267Z,23.65
2022-12-26T23:47:47.650Z,24.38
2022-12-26T23:50:17.841Z,24.05
2022-12-26T23:52:46.484Z,24.95
2022-12-26T23:55:14.962Z,24.52
2022-12-26T23:57:43.229Z,24.05
